Terminal Aerodrome Forecast
Issued by NWS

Home | Current Version | Previous Version | Text Only | Print | Product List | Glossary Off
Versions: 1 2 3 4 5 6 7 8 9 10 11 12 13 14 15 16 17 18 19 20

745
FTUS43 KIWX 241740
TAFSBN
TAF
KSBN 241740Z 2418/2518 05006KT P6SM VCSH SCT035 OVC080
     FM242100 02007KT P6SM -SHRA OVC035
     FM250300 01006KT P6SM VCSH OVC010
     FM251100 34008KT P6SM VCSH OVC010=

USA.gov is the U.S. government's official web portal to all federal, state and local government web resources and services.